New Shoreham, Rhode Island
Current Conditions -  °F | °C
As of 2:55 AM on Friday 24 Oct 2014 (Local Time) from KBID Reporting Station
Overcast Overcast  
Wind Chill: 52°   Ceiling: 1600
Heat Index: 52°   Visibility: 10mi
Dew Point: 46°   Wind: 13mph
Humidity: 82%   Direction: 350°N
Pressure: 29.65"   Gusts: 21mph
Location:  41.1768°N, 71.5785°W
Report Text: KBID 240655Z AUTO 35011G18KT 10SM BKN016 OVC022 11/08 A2965 RMK AO1
Loading
Personal Weather Stations






























Interactive Weather Map
Tropical Storm Tracking
New forecast layout! Learn more

10-Day Weather Forecast

Advertisements
Track Severe Weather on mobile